sensor_id;sensor_type;location;lat;lon;timestamp;pressure;altitude;pressure_sealevel;temperature;humidity
12777;BME280;6452;41.572;23.732;2023-02-26T00:00:09;94557.13;;;9.83;nan
12777;BME280;6452;41.572;23.732;2023-02-26T00:02:59;94589.56;;;10.10;nan
12777;BME280;6452;41.572;23.732;2023-02-26T00:05:26;94592.50;;;10.03;nan
12777;BME280;6452;41.572;23.732;2023-02-26T00:07:53;94593.81;;;10.11;nan
12777;BME280;6452;41.572;23.732;2023-02-26T00:10:20;94584.53;;;9.98;nan
12777;BME280;6452;41.572;23.732;2023-02-26T00:12:47;94555.53;;;9.76;nan
12777;BME280;6452;41.572;23.732;2023-02-26T00:15:13;94549.13;;;9.62;nan
12777;BME280;6452;41.572;23.732;2023-02-26T00:18:06;94549.66;;;9.54;nan
12777;BME280;6452;41.572;23.732;2023-02-26T00:20:35;94598.34;;;9.80;nan
12777;BME280;6452;41.572;23.732;2023-02-26T00:23:03;94581.59;;;9.79;nan
12777;BME280;6452;41.572;23.732;2023-02-26T00:25:30;94545.94;;;9.60;nan
12777;BME280;6452;41.572;23.732;2023-02-26T00:27:57;94602.63;;;9.91;nan
12777;BME280;6452;41.572;23.732;2023-02-26T00:30:24;94582.66;;;9.89;nan
12777;BME280;6452;41.572;23.732;2023-02-26T00:32:52;94582.66;;;9.84;nan
12777;BME280;6452;41.572;23.732;2023-02-26T00:35:20;94599.41;;;9.94;nan
12777;BME280;6452;41.572;23.732;2023-02-26T00:38:10;94580.00;;;9.99;nan
12777;BME280;6452;41.572;23.732;2023-02-26T00:40:46;94571.22;;;9.93;nan
12777;BME280;6452;41.572;23.732;2023-02-26T00:43:33;94584.78;;;10.12;nan
12777;BME280;6452;41.572;23.732;2023-02-26T00:46:26;94550.75;;;9.78;nan
12777;BME280;6452;41.572;23.732;2023-02-26T00:49:07;94594.38;;;9.93;nan
12777;BME280;6452;41.572;23.732;2023-02-26T00:51:55;94551.81;;;9.72;nan
12777;BME280;6452;41.572;23.732;2023-02-26T00:54:37;94582.38;;;9.95;nan
12777;BME280;6452;41.572;23.732;2023-02-26T00:57:04;94590.09;;;9.97;nan
12777;BME280;6452;41.572;23.732;2023-02-26T00:59:34;94565.09;;;9.98;nan
12777;BME280;6452;41.572;23.732;2023-02-26T01:02:01;94555.25;;;9.98;nan
12777;BME280;6452;41.572;23.732;2023-02-26T01:04:28;94548.31;;;10.02;nan
12777;BME280;6452;41.572;23.732;2023-02-26T01:06:57;94563.22;;;9.98;nan
12777;BME280;6452;41.572;23.732;2023-02-26T01:09:29;94545.13;;;9.95;nan
12777;BME280;6452;41.572;23.732;2023-02-26T01:12:00;94551.25;;;9.91;nan
12777;BME280;6452;41.572;23.732;2023-02-26T01:14:29;94554.47;;;9.93;nan
12777;BME280;6452;41.572;23.732;2023-02-26T01:17:07;94548.31;;;10.12;nan
12777;BME280;6452;41.572;23.732;2023-02-26T01:20:08;94540.03;;;10.09;nan
12777;BME280;6452;41.572;23.732;2023-02-26T01:22:43;94474.09;;;9.65;nan
12777;BME280;6452;41.572;23.732;2023-02-26T01:25:36;94537.66;;;10.02;nan
12777;BME280;6452;41.572;23.732;2023-02-26T01:28:05;94557.09;;;9.98;nan
12777;BME280;6452;41.572;23.732;2023-02-26T01:30:32;94520.13;;;9.91;nan
12777;BME280;6452;41.572;23.732;2023-02-26T01:36:00;94530.50;;;9.93;nan
12777;BME280;6452;41.572;23.732;2023-02-26T01:38:35;94539.53;;;10.07;nan
12777;BME280;6452;41.572;23.732;2023-02-26T01:49:17;94498.25;;;10.09;nan
12777;BME280;6452;41.572;23.732;2023-02-26T01:51:48;94516.91;;;10.04;nan
12777;BME280;6452;41.572;23.732;2023-02-26T01:54:20;94504.94;;;10.07;nan
12777;BME280;6452;41.572;23.732;2023-02-26T01:56:49;94499.63;;;9.92;nan
12777;BME280;6452;41.572;23.732;2023-02-26T01:59:21;94509.78;;;9.79;nan
12777;BME280;6452;41.572;23.732;2023-02-26T02:01:51;94521.19;;;10.00;nan
12777;BME280;6452;41.572;23.732;2023-02-26T02:04:19;94455.47;;;9.80;nan
12777;BME280;6452;41.572;23.732;2023-02-26T02:06:45;94515.06;;;9.90;nan
12777;BME280;6452;41.572;23.732;2023-02-26T02:09:13;94497.47;;;10.04;nan
12777;BME280;6452;41.572;23.732;2023-02-26T02:14:23;94507.31;;;10.24;nan
12777;BME280;6452;41.572;23.732;2023-02-26T02:17:01;94452.53;;;9.92;nan
12777;BME280;6452;41.572;23.732;2023-02-26T02:19:42;94494.53;;;10.10;nan
12777;BME280;6452;41.572;23.732;2023-02-26T02:25:45;94486.03;;;10.13;nan
12777;BME280;6452;41.572;23.732;2023-02-26T02:28:47;94461.81;;;10.05;nan
12777;BME280;6452;41.572;23.732;2023-02-26T02:31:26;94452.03;;;9.85;nan
12777;BME280;6452;41.572;23.732;2023-02-26T02:39:33;94505.72;;;10.12;nan
12777;BME280;6452;41.572;23.732;2023-02-26T02:42:06;94513.97;;;10.06;nan
12777;BME280;6452;41.572;23.732;2023-02-26T02:44:38;94488.97;;;10.02;nan
12777;BME280;6452;41.572;23.732;2023-02-26T02:47:08;94494.84;;;9.99;nan
12777;BME280;6452;41.572;23.732;2023-02-26T02:49:44;94500.13;;;10.09;nan
12777;BME280;6452;41.572;23.732;2023-02-26T02:52:24;94455.47;;;9.80;nan
12777;BME280;6452;41.572;23.732;2023-02-26T02:55:02;94460.78;;;9.91;nan
12777;BME280;6452;41.572;23.732;2023-02-26T02:57:36;94452.81;;;9.86;nan
12777;BME280;6452;41.572;23.732;2023-02-26T03:00:07;94408.19;;;9.57;nan
12777;BME280;6452;41.572;23.732;2023-02-26T03:02:38;94487.13;;;9.97;nan
12777;BME280;6452;41.572;23.732;2023-02-26T03:05:07;94483.63;;;10.12;nan
12777;BME280;6452;41.572;23.732;2023-02-26T03:07:36;94487.09;;;10.07;nan
12777;BME280;6452;41.572;23.732;2023-02-26T03:10:05;94421.69;;;9.86;nan
12777;BME280;6452;41.572;23.732;2023-02-26T03:12:31;94474.56;;;10.13;nan
12777;BME280;6452;41.572;23.732;2023-02-26T03:14:58;94423.06;;;9.63;nan
12777;BME280;6452;41.572;23.732;2023-02-26T03:17:38;94474.09;;;9.86;nan
12777;BME280;6452;41.572;23.732;2023-02-26T03:20:30;94485.53;;;9.91;nan
12777;BME280;6452;41.572;23.732;2023-02-26T03:23:10;94443.00;;;9.66;nan
12777;BME280;6452;41.572;23.732;2023-02-26T03:25:43;94495.34;;;9.96;nan
12777;BME280;6452;41.572;23.732;2023-02-26T03:28:24;94494.56;;;9.90;nan
12777;BME280;6452;41.572;23.732;2023-02-26T03:36:42;94468.50;;;9.92;nan
12777;BME280;6452;41.572;23.732;2023-02-26T03:39:33;94477.25;;;9.98;nan
12777;BME280;6452;41.572;23.732;2023-02-26T03:42:10;94472.47;;;9.95;nan
12777;BME280;6452;41.572;23.732;2023-02-26T03:44:42;94479.13;;;10.07;nan
12777;BME280;6452;41.572;23.732;2023-02-26T03:47:25;94465.59;;;9.94;nan
12777;BME280;6452;41.572;23.732;2023-02-26T03:53:02;94444.56;;;9.82;nan
12777;BME280;6452;41.572;23.732;2023-02-26T03:58:24;94425.19;;;9.46;nan
12777;BME280;6452;41.572;23.732;2023-02-26T04:00:59;94473.56;;;9.94;nan
12777;BME280;6452;41.572;23.732;2023-02-26T04:03:35;94386.41;;;9.35;nan
12777;BME280;6452;41.572;23.732;2023-02-26T04:06:03;94431.84;;;9.59;nan
12777;BME280;6452;41.572;23.732;2023-02-26T04:08:31;94463.97;;;9.93;nan
12777;BME280;6452;41.572;23.732;2023-02-26T04:11:01;94462.41;;;9.87;nan
12777;BME280;6452;41.572;23.732;2023-02-26T04:13:31;94471.66;;;9.94;nan
12777;BME280;6452;41.572;23.732;2023-02-26T04:15:58;94462.41;;;9.76;nan
12777;BME280;6452;41.572;23.732;2023-02-26T04:18:25;94462.94;;;9.73;nan
12777;BME280;6452;41.572;23.732;2023-02-26T04:20:51;94467.75;;;9.71;nan
12777;BME280;6452;41.572;23.732;2023-02-26T04:23:18;94438.22;;;9.63;nan
12777;BME280;6452;41.572;23.732;2023-02-26T04:25:44;94477.56;;;9.86;nan
12777;BME280;6452;41.572;23.732;2023-02-26T04:28:11;94471.44;;;9.80;nan
12777;BME280;6452;41.572;23.732;2023-02-26T04:30:36;94420.94;;;9.70;nan
12777;BME280;6452;41.572;23.732;2023-02-26T04:33:03;94471.94;;;9.98;nan
12777;BME280;6452;41.572;23.732;2023-02-26T04:35:31;94478.31;;;10.07;nan
12777;BME280;6452;41.572;23.732;2023-02-26T04:37:58;94480.75;;;9.93;nan
12777;BME280;6452;41.572;23.732;2023-02-26T04:40:27;94487.38;;;10.01;nan
12777;BME280;6452;41.572;23.732;2023-02-26T04:42:54;94490.00;;;10.11;nan
12777;BME280;6452;41.572;23.732;2023-02-26T04:45:21;94438.47;;;9.66;nan
12777;BME280;6452;41.572;23.732;2023-02-26T04:47:47;94440.06;;;9.77;nan
12777;BME280;6452;41.572;23.732;2023-02-26T04:50:13;94427.88;;;9.56;nan
12777;BME280;6452;41.572;23.732;2023-02-26T04:52:40;94427.81;;;9.76;nan
12777;BME280;6452;41.572;23.732;2023-02-26T04:55:07;94429.38;;;9.88;nan
12777;BME280;6452;41.572;23.732;2023-02-26T04:57:33;94483.09;;;10.15;nan
12777;BME280;6452;41.572;23.732;2023-02-26T05:00:00;94487.34;;;10.11;nan
12777;BME280;6452;41.572;23.732;2023-02-26T05:02:26;94465.81;;;9.97;nan
12777;BME280;6452;41.572;23.732;2023-02-26T05:04:52;94491.34;;;10.18;nan
12777;BME280;6452;41.572;23.732;2023-02-26T05:07:19;94437.38;;;9.83;nan
12777;BME280;6452;41.572;23.732;2023-02-26T05:09:46;94484.69;;;10.26;nan
12777;BME280;6452;41.572;23.732;2023-02-26T05:12:13;94437.34;;;9.98;nan
12777;BME280;6452;41.572;23.732;2023-02-26T05:14:39;94499.31;;;10.24;nan
12777;BME280;6452;41.572;23.732;2023-02-26T05:17:06;94499.03;;;10.35;nan
12777;BME280;6452;41.572;23.732;2023-02-26T05:19:32;94485.97;;;10.39;nan
12777;BME280;6452;41.572;23.732;2023-02-26T05:21:59;94467.91;;;10.26;nan
12777;BME280;6452;41.572;23.732;2023-02-26T05:24:26;94452.22;;;10.19;nan
12777;BME280;6452;41.572;23.732;2023-02-26T05:26:56;94500.09;;;10.34;nan
12777;BME280;6452;41.572;23.732;2023-02-26T05:29:22;94456.22;;;10.01;nan
12777;BME280;6452;41.572;23.732;2023-02-26T05:31:49;94492.09;;;10.39;nan
12777;BME280;6452;41.572;23.732;2023-02-26T05:34:20;94474.31;;;10.20;nan
12777;BME280;6452;41.572;23.732;2023-02-26T05:36:46;94534.72;;;10.34;nan
12777;BME280;6452;41.572;23.732;2023-02-26T05:39:13;94519.78;;;10.43;nan
12777;BME280;6452;41.572;23.732;2023-02-26T05:41:39;94520.81;;;10.52;nan
12777;BME280;6452;41.572;23.732;2023-02-26T05:44:06;94473.50;;;10.24;nan
12777;BME280;6452;41.572;23.732;2023-02-26T05:46:37;94500.28;;;10.58;nan
12777;BME280;6452;41.572;23.732;2023-02-26T05:49:04;94467.50;;;10.63;nan
12777;BME280;6452;41.572;23.732;2023-02-26T05:51:30;94529.66;;;11.02;nan
12777;BME280;6452;41.572;23.732;2023-02-26T05:53:57;94521.38;;;11.04;nan
12777;BME280;6452;41.572;23.732;2023-02-26T05:56:24;94517.31;;;11.16;nan
12777;BME280;6452;41.572;23.732;2023-02-26T05:58:55;94482.09;;;11.19;nan
12777;BME280;6452;41.572;23.732;2023-02-26T06:01:21;94516.03;;;11.48;nan
12777;BME280;6452;41.572;23.732;2023-02-26T06:03:48;94518.66;;;11.53;nan
12777;BME280;6452;41.572;23.732;2023-02-26T06:06:14;94528.25;;;11.59;nan
12777;BME280;6452;41.572;23.732;2023-02-26T06:08:43;94492.88;;;11.43;nan
12777;BME280;6452;41.572;23.732;2023-02-26T06:11:10;94522.78;;;11.79;nan
12777;BME280;6452;41.572;23.732;2023-02-26T06:13:41;94482.63;;;11.55;nan
12777;BME280;6452;41.572;23.732;2023-02-26T06:16:08;94480.13;;;11.69;nan
12777;BME280;6452;41.572;23.732;2023-02-26T06:18:34;94525.78;;;12.01;nan
12777;BME280;6452;41.572;23.732;2023-02-26T06:21:01;94518.31;;;11.98;nan
12777;BME280;6452;41.572;23.732;2023-02-26T06:23:27;94443.41;;;11.56;nan
12777;BME280;6452;41.572;23.732;2023-02-26T06:25:53;94534.94;;;12.19;nan
12777;BME280;6452;41.572;23.732;2023-02-26T06:28:20;94541.28;;;12.28;nan
12777;BME280;6452;41.572;23.732;2023-02-26T06:30:51;94518.09;;;12.24;nan
12777;BME280;6452;41.572;23.732;2023-02-26T06:33:18;94527.72;;;12.48;nan
12777;BME280;6452;41.572;23.732;2023-02-26T06:35:44;94546.94;;;12.74;nan
12777;BME280;6452;41.572;23.732;2023-02-26T06:38:11;94548.66;;;13.08;nan
12777;BME280;6452;41.572;23.732;2023-02-26T06:40:37;94516.03;;;13.29;nan
12777;BME280;6452;41.572;23.732;2023-02-26T06:43:04;94553.97;;;13.69;nan
12777;BME280;6452;41.572;23.732;2023-02-26T06:45:31;94522.16;;;13.49;nan
12777;BME280;6452;41.572;23.732;2023-02-26T06:47:56;94552.56;;;13.58;nan
12777;BME280;6452;41.572;23.732;2023-02-26T06:50:23;94485.22;;;13.13;nan
12777;BME280;6452;41.572;23.732;2023-02-26T06:52:50;94562.63;;;13.66;nan
12777;BME280;6452;41.572;23.732;2023-02-26T06:55:17;94556.31;;;13.76;nan
12777;BME280;6452;41.572;23.732;2023-02-26T06:57:44;94537.72;;;13.98;nan
12777;BME280;6452;41.572;23.732;2023-02-26T07:00:15;94517.22;;;14.07;nan
12777;BME280;6452;41.572;23.732;2023-02-26T07:02:42;94503.81;;;14.94;nan
12777;BME280;6452;41.572;23.732;2023-02-26T07:05:09;94538.38;;;15.73;nan
12777;BME280;6452;41.572;23.732;2023-02-26T07:07:35;94539.00;;;15.92;nan
12777;BME280;6452;41.572;23.732;2023-02-26T07:10:02;94559.72;;;15.91;nan
12777;BME280;6452;41.572;23.732;2023-02-26T07:12:28;94487.75;;;15.66;nan
12777;BME280;6452;41.572;23.732;2023-02-26T07:14:55;94542.97;;;15.94;nan
12777;BME280;6452;41.572;23.732;2023-02-26T07:17:21;94546.13;;;16.19;nan
12777;BME280;6452;41.572;23.732;2023-02-26T07:19:50;94523.78;;;16.10;nan
12777;BME280;6452;41.572;23.732;2023-02-26T07:22:17;94533.00;;;15.95;nan
12777;BME280;6452;41.572;23.732;2023-02-26T07:24:44;94495.66;;;15.63;nan
12777;BME280;6452;41.572;23.732;2023-02-26T07:27:11;94537.25;;;16.40;nan
12777;BME280;6452;41.572;23.732;2023-02-26T07:29:37;94528.19;;;16.06;nan
12777;BME280;6452;41.572;23.732;2023-02-26T07:32:04;94495.34;;;15.50;nan
12777;BME280;6452;41.572;23.732;2023-02-26T07:34:31;94520.72;;;15.80;nan
12777;BME280;6452;41.572;23.732;2023-02-26T07:36:57;94489.31;;;15.45;nan
12777;BME280;6452;41.572;23.732;2023-02-26T07:39:26;94533.56;;;15.47;nan
12777;BME280;6452;41.572;23.732;2023-02-26T07:41:52;94481.88;;;15.64;nan
12777;BME280;6452;41.572;23.732;2023-02-26T07:44:18;94471.34;;;15.90;nan
12777;BME280;6452;41.572;23.732;2023-02-26T07:46:45;94434.38;;;15.51;nan
12777;BME280;6452;41.572;23.732;2023-02-26T07:49:12;94470.19;;;15.82;nan
12777;BME280;6452;41.572;23.732;2023-02-26T07:51:38;94513.47;;;16.03;nan
12777;BME280;6452;41.572;23.732;2023-02-26T07:54:05;94504.34;;;16.35;nan
12777;BME280;6452;41.572;23.732;2023-02-26T07:56:32;94491.66;;;16.66;nan
12777;BME280;6452;41.572;23.732;2023-02-26T07:58:59;94501.34;;;16.67;nan
12777;BME280;6452;41.572;23.732;2023-02-26T08:01:26;94518.72;;;16.61;nan
12777;BME280;6452;41.572;23.732;2023-02-26T08:03:53;94516.31;;;16.60;nan
12777;BME280;6452;41.572;23.732;2023-02-26T08:06:19;94479.09;;;16.84;nan
12777;BME280;6452;41.572;23.732;2023-02-26T08:08:46;94461.38;;;16.92;nan
12777;BME280;6452;41.572;23.732;2023-02-26T08:11:12;94490.56;;;16.67;nan
12777;BME280;6452;41.572;23.732;2023-02-26T08:13:38;94481.78;;;16.84;nan
12777;BME280;6452;41.572;23.732;2023-02-26T08:16:05;94523.78;;;17.11;nan
12777;BME280;6452;41.572;23.732;2023-02-26T08:18:31;94474.88;;;16.61;nan
12777;BME280;6452;41.572;23.732;2023-02-26T08:20:58;94499.13;;;16.69;nan
12777;BME280;6452;41.572;23.732;2023-02-26T08:23:25;94541.22;;;16.74;nan
12777;BME280;6452;41.572;23.732;2023-02-26T08:26:00;94528.78;;;16.87;nan
12777;BME280;6452;41.572;23.732;2023-02-26T08:28:26;94535.50;;;17.06;nan
12777;BME280;6452;41.572;23.732;2023-02-26T08:30:53;94556.06;;;17.02;nan
12777;BME280;6452;41.572;23.732;2023-02-26T08:33:20;94536.56;;;16.97;nan
12777;BME280;6452;41.572;23.732;2023-02-26T08:35:48;94505.53;;;16.91;nan
12777;BME280;6452;41.572;23.732;2023-02-26T08:38:14;94451.09;;;17.11;nan
12777;BME280;6452;41.572;23.732;2023-02-26T08:40:41;94480.91;;;17.40;nan
12777;BME280;6452;41.572;23.732;2023-02-26T08:43:08;94518.66;;;17.58;nan
12777;BME280;6452;41.572;23.732;2023-02-26T08:45:36;94534.16;;;17.52;nan
12777;BME280;6452;41.572;23.732;2023-02-26T08:48:06;94541.16;;;17.62;nan
12777;BME280;6452;41.572;23.732;2023-02-26T08:50:32;94484.75;;;17.91;nan
12777;BME280;6452;41.572;23.732;2023-02-26T08:52:59;94519.16;;;17.85;nan
12777;BME280;6452;41.572;23.732;2023-02-26T08:55:25;94524.69;;;18.06;nan
12777;BME280;6452;41.572;23.732;2023-02-26T08:57:52;94506.78;;;17.93;nan
12777;BME280;6452;41.572;23.732;2023-02-26T09:00:18;94471.69;;;18.10;nan
12777;BME280;6452;41.572;23.732;2023-02-26T09:02:45;94496.56;;;18.16;nan
12777;BME280;6452;41.572;23.732;2023-02-26T09:05:11;94497.72;;;17.89;nan
12777;BME280;6452;41.572;23.732;2023-02-26T09:07:38;94466.81;;;17.26;nan
12777;BME280;6452;41.572;23.732;2023-02-26T09:10:05;94493.00;;;17.69;nan
12777;BME280;6452;41.572;23.732;2023-02-26T09:12:33;94487.13;;;17.67;nan
12777;BME280;6452;41.572;23.732;2023-02-26T09:15:06;94495.53;;;18.00;nan
12777;BME280;6452;41.572;23.732;2023-02-26T09:17:33;94422.13;;;17.85;nan
12777;BME280;6452;41.572;23.732;2023-02-26T09:20:00;94496.38;;;18.38;nan
12777;BME280;6452;41.572;23.732;2023-02-26T09:22:26;94473.06;;;19.09;nan
12777;BME280;6452;41.572;23.732;2023-02-26T09:24:53;94437.13;;;19.18;nan
12777;BME280;6452;41.572;23.732;2023-02-26T09:27:19;94448.38;;;19.20;nan
12777;BME280;6452;41.572;23.732;2023-02-26T09:29:46;94488.97;;;19.32;nan
12777;BME280;6452;41.572;23.732;2023-02-26T09:32:13;94447.28;;;18.91;nan
12777;BME280;6452;41.572;23.732;2023-02-26T09:34:39;94481.53;;;19.29;nan
12777;BME280;6452;41.572;23.732;2023-02-26T09:37:07;94460.06;;;19.32;nan
12777;BME280;6452;41.572;23.732;2023-02-26T09:39:33;94477.00;;;18.91;nan
12777;BME280;6452;41.572;23.732;2023-02-26T09:42:26;94485.34;;;18.69;nan
12777;BME280;6452;41.572;23.732;2023-02-26T09:44:55;94492.34;;;18.53;nan
12777;BME280;6452;41.572;23.732;2023-02-26T09:47:33;94452.69;;;18.62;nan
12777;BME280;6452;41.572;23.732;2023-02-26T09:50:42;94493.34;;;18.57;nan
12777;BME280;6452;41.572;23.732;2023-02-26T09:53:21;94489.06;;;18.56;nan
12777;BME280;6452;41.572;23.732;2023-02-26T09:55:54;94467.25;;;18.14;nan
12777;BME280;6452;41.572;23.732;2023-02-26T09:58:30;94484.75;;;17.65;nan
12777;BME280;6452;41.572;23.732;2023-02-26T10:01:09;94468.72;;;17.43;nan
12777;BME280;6452;41.572;23.732;2023-02-26T10:06:32;94471.09;;;17.44;nan
12777;BME280;6452;41.572;23.732;2023-02-26T10:12:15;94463.81;;;17.28;nan
12777;BME280;6452;41.572;23.732;2023-02-26T10:25:21;94483.19;;;16.51;nan
12777;BME280;6452;41.572;23.732;2023-02-26T10:31:04;94450.75;;;15.85;nan
12777;BME280;6452;41.572;23.732;2023-02-26T10:36:22;94518.03;;;16.25;nan
12777;BME280;6452;41.572;23.732;2023-02-26T10:38:53;94472.06;;;16.35;nan
12777;BME280;6452;41.572;23.732;2023-02-26T10:41:28;94511.72;;;16.91;nan
12777;BME280;6452;41.572;23.732;2023-02-26T10:44:24;94472.94;;;17.01;nan
12777;BME280;6452;41.572;23.732;2023-02-26T10:47:18;94513.84;;;16.63;nan
12777;BME280;6452;41.572;23.732;2023-02-26T10:49:58;94446.44;;;16.37;nan
12777;BME280;6452;41.572;23.732;2023-02-26T10:52:27;94509.09;;;16.69;nan
12777;BME280;6452;41.572;23.732;2023-02-26T10:57:31;94517.19;;;16.16;nan
12777;BME280;6452;41.572;23.732;2023-02-26T11:00:00;94510.22;;;16.15;nan
12777;BME280;6452;41.572;23.732;2023-02-26T11:02:40;94498.84;;;16.18;nan
12777;BME280;6452;41.572;23.732;2023-02-26T11:05:16;94519.78;;;15.98;nan
12777;BME280;6452;41.572;23.732;2023-02-26T11:07:44;94527.09;;;15.84;nan
12777;BME280;6452;41.572;23.732;2023-02-26T11:10:15;94526.16;;;15.67;nan
12777;BME280;6452;41.572;23.732;2023-02-26T11:12:42;94496.13;;;15.51;nan
12777;BME280;6452;41.572;23.732;2023-02-26T11:15:18;94502.75;;;15.31;nan
12777;BME280;6452;41.572;23.732;2023-02-26T11:17:47;94465.56;;;15.02;nan
12777;BME280;6452;41.572;23.732;2023-02-26T11:20:33;94496.03;;;15.20;nan
12777;BME280;6452;41.572;23.732;2023-02-26T11:23:03;94433.44;;;14.75;nan
12777;BME280;6452;41.572;23.732;2023-02-26T11:25:32;94472.72;;;14.93;nan
12777;BME280;6452;41.572;23.732;2023-02-26T11:28:04;94441.47;;;14.61;nan
12777;BME280;6452;41.572;23.732;2023-02-26T11:30:36;94511.56;;;14.96;nan
12777;BME280;6452;41.572;23.732;2023-02-26T11:33:13;94463.13;;;14.65;nan
12777;BME280;6452;41.572;23.732;2023-02-26T11:35:40;94462.53;;;14.54;nan
12777;BME280;6452;41.572;23.732;2023-02-26T11:38:19;94472.47;;;14.67;nan
12777;BME280;6452;41.572;23.732;2023-02-26T11:40:50;94504.63;;;14.95;nan
12777;BME280;6452;41.572;23.732;2023-02-26T11:43:19;94530.16;;;14.92;nan
12777;BME280;6452;41.572;23.732;2023-02-26T11:46:05;94538.50;;;14.91;nan
12777;BME280;6452;41.572;23.732;2023-02-26T11:48:45;94524.50;;;14.80;nan
12777;BME280;6452;41.572;23.732;2023-02-26T11:51:20;94526.09;;;14.81;nan
12777;BME280;6452;41.572;23.732;2023-02-26T11:53:55;94528.47;;;14.82;nan
12777;BME280;6452;41.572;23.732;2023-02-26T11:56:45;94507.31;;;14.81;nan
12777;BME280;6452;41.572;23.732;2023-02-26T11:59:20;94527.84;;;15.27;nan
12777;BME280;6452;41.572;23.732;2023-02-26T12:01:48;94486.91;;;15.07;nan
12777;BME280;6452;41.572;23.732;2023-02-26T12:04:21;94520.25;;;15.29;nan
12777;BME280;6452;41.572;23.732;2023-02-26T12:06:52;94525.75;;;15.23;nan
12777;BME280;6452;41.572;23.732;2023-02-26T12:09:19;94519.06;;;15.21;nan
12777;BME280;6452;41.572;23.732;2023-02-26T12:19:54;94532.03;;;15.05;nan
12777;BME280;6452;41.572;23.732;2023-02-26T12:55:21;94580.41;;;15.00;nan
12777;BME280;6452;41.572;23.732;2023-02-26T12:58:18;94584.81;;;14.96;nan
12777;BME280;6452;41.572;23.732;2023-02-26T13:20:15;94597.09;;;14.70;nan
12777;BME280;6452;41.572;23.732;2023-02-26T13:23:09;94611.00;;;14.72;nan
12777;BME280;6452;41.572;23.732;2023-02-26T13:25:40;94616.78;;;14.79;nan
12777;BME280;6452;41.572;23.732;2023-02-26T13:31:00;94597.19;;;14.65;nan
12777;BME280;6452;41.572;23.732;2023-02-26T13:33:29;94611.25;;;14.57;nan
12777;BME280;6452;41.572;23.732;2023-02-26T13:35:57;94600.34;;;14.53;nan
12777;BME280;6452;41.572;23.732;2023-02-26T13:41:37;94609.88;;;14.45;nan
12777;BME280;6452;41.572;23.732;2023-02-26T13:44:32;94548.09;;;14.04;nan
12777;BME280;6452;41.572;23.732;2023-02-26T13:47:30;94618.91;;;14.50;nan
12777;BME280;6452;41.572;23.732;2023-02-26T13:50:29;94631.31;;;14.45;nan
12777;BME280;6452;41.572;23.732;2023-02-26T13:56:16;94637.41;;;14.32;nan
12777;BME280;6452;41.572;23.732;2023-02-26T13:58:47;94609.00;;;14.31;nan
12777;BME280;6452;41.572;23.732;2023-02-26T14:01:17;94625.66;;;14.28;nan
12777;BME280;6452;41.572;23.732;2023-02-26T14:06:43;94560.50;;;13.82;nan
12777;BME280;6452;41.572;23.732;2023-02-26T14:25:20;94620.47;;;13.99;nan
12777;BME280;6452;41.572;23.732;2023-02-26T14:31:04;94629.00;;;14.20;nan
12777;BME280;6452;41.572;23.732;2023-02-26T14:33:39;94545.75;;;13.65;nan
12777;BME280;6452;41.572;23.732;2023-02-26T14:36:16;94585.53;;;13.91;nan
12777;BME280;6452;41.572;23.732;2023-02-26T14:38:46;94627.19;;;14.16;nan
12777;BME280;6452;41.572;23.732;2023-02-26T14:41:22;94627.19;;;14.16;nan
12777;BME280;6452;41.572;23.732;2023-02-26T14:46:32;94630.03;;;14.05;nan
12777;BME280;6452;41.572;23.732;2023-02-26T14:49:00;94620.44;;;14.04;nan
12777;BME280;6452;41.572;23.732;2023-02-26T14:51:32;94623.03;;;14.10;nan
12777;BME280;6452;41.572;23.732;2023-02-26T14:57:27;94639.94;;;14.05;nan
12777;BME280;6452;41.572;23.732;2023-02-26T15:00:25;94608.84;;;13.72;nan
12777;BME280;6452;41.572;23.732;2023-02-26T15:05:45;94632.94;;;14.09;nan
12777;BME280;6452;41.572;23.732;2023-02-26T15:11:04;94635.63;;;14.09;nan
12777;BME280;6452;41.572;23.732;2023-02-26T15:17:04;94634.69;;;14.00;nan
12777;BME280;6452;41.572;23.732;2023-02-26T15:22:55;94601.31;;;13.74;nan
12777;BME280;6452;41.572;23.732;2023-02-26T15:25:29;94625.50;;;13.87;nan
12777;BME280;6452;41.572;23.732;2023-02-26T15:27:57;94585.34;;;13.68;nan
12777;BME280;6452;41.572;23.732;2023-02-26T15:30:23;94573.09;;;13.62;nan
12777;BME280;6452;41.572;23.732;2023-02-26T15:32:56;94630.06;;;13.87;nan
12777;BME280;6452;41.572;23.732;2023-02-26T15:35:25;94649.75;;;13.96;nan
12777;BME280;6452;41.572;23.732;2023-02-26T15:37:55;94651.34;;;13.97;nan
12777;BME280;6452;41.572;23.732;2023-02-26T15:40:24;94641.75;;;13.91;nan
12777;BME280;6452;41.572;23.732;2023-02-26T15:42:54;94660.38;;;13.82;nan
12777;BME280;6452;41.572;23.732;2023-02-26T15:45:30;94673.19;;;13.85;nan
12777;BME280;6452;41.572;23.732;2023-02-26T15:48:01;94644.56;;;13.62;nan
12777;BME280;6452;41.572;23.732;2023-02-26T15:50:29;94658.41;;;13.69;nan
12777;BME280;6452;41.572;23.732;2023-02-26T15:52:59;94667.19;;;13.75;nan
12777;BME280;6452;41.572;23.732;2023-02-26T15:55:33;94669.88;;;13.75;nan
12777;BME280;6452;41.572;23.732;2023-02-26T15:58:01;94628.56;;;13.38;nan
12777;BME280;6452;41.572;23.732;2023-02-26T16:00:31;94679.34;;;13.67;nan
12777;BME280;6452;41.572;23.732;2023-02-26T16:02:57;94671.88;;;13.64;nan
12777;BME280;6452;41.572;23.732;2023-02-26T16:05:25;94690.84;;;13.67;nan
12777;BME280;6452;41.572;23.732;2023-02-26T16:07:52;94692.88;;;13.76;nan
12777;BME280;6452;41.572;23.732;2023-02-26T16:10:31;94693.38;;;13.78;nan
12777;BME280;6452;41.572;23.732;2023-02-26T16:12:58;94654.13;;;13.49;nan
12777;BME280;6452;41.572;23.732;2023-02-26T16:15:46;94704.94;;;13.73;nan
12777;BME280;6452;41.572;23.732;2023-02-26T16:18:15;94703.91;;;13.69;nan
12777;BME280;6452;41.572;23.732;2023-02-26T16:20:45;94691.13;;;13.66;nan
12777;BME280;6452;41.572;23.732;2023-02-26T16:23:15;94646.88;;;13.31;nan
12777;BME280;6452;41.572;23.732;2023-02-26T16:26:06;94651.75;;;13.24;nan
12777;BME280;6452;41.572;23.732;2023-02-26T16:28:40;94710.91;;;13.46;nan
12777;BME280;6452;41.572;23.732;2023-02-26T16:31:23;94675.38;;;13.17;nan
12777;BME280;6452;41.572;23.732;2023-02-26T16:36:55;94706.13;;;13.43;nan
12777;BME280;6452;41.572;23.732;2023-02-26T16:39:24;94644.97;;;13.08;nan